Weather History for KBDH - January, 2013

Change the Weather History Date:

Wednesday, January 16, 2013

  Actual Average (KLJF) Record (KLJF)
Temperature  
Mean Temperature 16 °F -  
Max Temperature 33 °F 21 °F 50 °F (1961)
Min Temperature 0 °F 1 °F -36 °F (1977)
Degree Days  
Heating Degree Days 48    
Moisture  
Dew Point 15 °F    
Average Humidity 77    
Maximum Humidity 93    
Minimum Humidity 59    
Precipitation  
Precipitation 0.00 in - - ()
Sea Level Pressure  
Sea Level Pressure 29.89 in    
Wind  
Wind Speed 13 mph (WNW)    
Max Wind Speed 21 mph    
Max Gust Speed 26 mph    
Visibility 8 miles    
Events Snow    
Averages and records for this station are not official NWS values.
T = Trace of Precipitation, MM = Missing Value Source: NWS Daily Summary

Daily Weather History Graph

Daily Weather History Graph

Search for Another Location

Airport or City:

Trip Planner

Search our weather history database for the weather conditions in past years. The results will help you decide how hot, cold, wet, or windy it might be!

Date:

Astronomy

Jan. 16, 2013 Rise Set
Actual Time 7:54 AM CST 5:06 PM CST
Civil Twilight 7:22 AM CST 5:39 PM CST
Nautical Twilight 6:45 AM CST 6:15 PM CST
Astronomical Twilight 6:10 AM CST 6:50 PM CST
Moon 10:14 AM CST (1/16) 11:17 PM CST (1/16)
Length of Visible Light 10h 17m
Length of Day
9h 11m
Waxing Crescent, 28% of the Moon is Illuminated
Jan 16
Waxing Crescent
Jan 18
First Quarter
Jan 26
Full
Feb 3
Last Quarter
Feb 10
New

Hourly Weather History & Observations

Time (CST) Temp. Windchill Dew Point Humidity Pressure Visibility Wind Dir Wind Speed Gust Speed Precip Events Conditions
12:15 AM 23.0 °F 13.9 °F 10.4 °F 59% 29.73 in 10.0 mi SSW 8.1 mph - N/A   Overcast
12:35 AM 23.0 °F 14.7 °F 12.2 °F 63% 29.72 in 10.0 mi SSW 6.9 mph - N/A   Overcast
12:55 AM 23.0 °F 14.7 °F 12.2 °F 63% 29.70 in 7.0 mi SSW 6.9 mph - N/A Snow Light Snow
1:15 AM 23.0 °F 8.7 °F 15.8 °F 74% 29.70 in 3.0 mi SW 18.4 mph 21.9 mph N/A Snow Light Snow
1:35 AM 23.0 °F 8.7 °F 15.8 °F 74% 29.68 in 10.0 mi SW 18.4 mph - N/A   Overcast
1:55 AM 23.0 °F 11.1 °F 15.8 °F 74% 29.67 in 10.0 mi SSW 12.7 mph 19.6 mph N/A   Overcast
2:15 AM 24.8 °F 11.5 °F 17.6 °F 74% 29.66 in 10.0 mi SW 17.3 mph 21.9 mph N/A   Overcast
2:35 AM 26.6 °F 12.7 °F 17.6 °F 69% 29.66 in 10.0 mi SW 20.7 mph - N/A   Overcast
2:55 AM 26.6 °F 13.1 °F 19.4 °F 74% 29.66 in 10.0 mi SW 19.6 mph 26.5 mph N/A   Overcast
3:15 AM 26.6 °F 13.1 °F 21.2 °F 80% 29.65 in 10.0 mi SW 19.6 mph 26.5 mph N/A   Overcast
3:35 AM 26.6 °F 13.1 °F 23.0 °F 86% 29.65 in 7.0 mi SW 19.6 mph - N/A   Overcast
3:55 AM 28.4 °F 15.8 °F 24.8 °F 86% 29.65 in 7.0 mi WSW 18.4 mph - N/A   Overcast
4:15 AM 28.4 °F 15.8 °F 26.6 °F 93% 29.65 in 5.0 mi WSW 18.4 mph - N/A   Overcast
4:35 AM 28.4 °F 16.2 °F 26.6 °F 93% 29.64 in 10.0 mi WSW 17.3 mph - N/A   Overcast
4:55 AM 30.2 °F 18.9 °F 28.4 °F 93% 29.65 in 10.0 mi West 16.1 mph - N/A   Overcast
5:15 AM 30.2 °F 19.3 °F 28.4 °F 93% 29.64 in 4.0 mi WSW 15.0 mph - N/A Snow Light Snow
5:35 AM 32.0 °F 22.1 °F 28.4 °F 87% 29.65 in 10.0 mi West 13.8 mph - N/A   Overcast
6:35 AM 33.8 °F 25.3 °F 30.2 °F 87% 29.66 in 10.0 mi WNW 11.5 mph - N/A   Mostly Cloudy
6:55 AM 33.8 °F 25.8 °F 28.4 °F 81% 29.67 in 10.0 mi WNW 10.4 mph - N/A   Scattered Clouds
7:15 AM 33.8 °F 25.3 °F 28.4 °F 81% 29.69 in 10.0 mi West 11.5 mph - N/A   Mostly Cloudy
7:36 AM 33.8 °F 25.3 °F 28.4 °F 81% 29.70 in 10.0 mi West 11.5 mph - N/A   Overcast
7:55 AM 33.8 °F 24.8 °F 30.2 °F 87% 29.71 in 10.0 mi West 12.7 mph - N/A   Overcast
8:15 AM 33.8 °F 23.9 °F 30.2 °F 87% 29.71 in 10.0 mi WNW 15.0 mph - N/A   Overcast
8:35 AM 33.8 °F 25.3 °F 28.4 °F 81% 29.72 in 10.0 mi WNW 11.5 mph - N/A   Overcast
8:55 AM 33.8 °F 23.5 °F 28.4 °F 81% 29.74 in 10.0 mi WNW 16.1 mph 19.6 mph N/A   Overcast
9:16 AM 33.8 °F 24.3 °F 26.6 °F 75% 29.75 in 10.0 mi WNW 13.8 mph - N/A   Overcast
9:35 AM 33.8 °F 24.3 °F 26.6 °F 75% 29.75 in 10.0 mi WNW 13.8 mph - N/A   Overcast
9:55 AM 32.0 °F 23.0 °F 26.6 °F 80% 29.77 in 10.0 mi WNW 11.5 mph - N/A   Overcast
10:16 AM 32.0 °F 23.6 °F 26.6 °F 80% 29.78 in 7.0 mi NW 10.4 mph - N/A   Overcast
10:35 AM 30.2 °F 19.3 °F 24.8 °F 80% 29.78 in 7.0 mi NW 15.0 mph - N/A Snow Light Snow
10:55 AM 30.2 °F 19.3 °F 23.0 °F 75% 29.78 in 2.0 mi NNW 15.0 mph - N/A Snow Light Snow
11:16 AM 28.4 °F 19.1 °F 24.8 °F 86% 29.79 in 2.0 mi NNW 10.4 mph - N/A Snow Light Snow
11:35 AM 28.4 °F 17.0 °F 24.8 °F 86% 29.80 in 1.5 mi NNW 15.0 mph 20.7 mph N/A Snow Light Snow
11:55 AM 26.6 °F 13.8 °F 23.0 °F 86% 29.81 in 0.8 mi NNW 17.3 mph - N/A Snow Light Snow
12:15 PM 26.6 °F 16.2 °F 23.0 °F 86% 29.81 in 0.8 mi NNW 11.5 mph - N/A Snow Light Snow
12:35 PM 26.6 °F 16.8 °F 23.0 °F 86% 29.82 in 0.5 mi NNW 10.4 mph - N/A Snow Snow
12:55 PM 26.6 °F 15.2 °F 23.0 °F 86% 29.83 in 1.0 mi North 13.8 mph - N/A Snow Light Snow
1:15 PM 26.6 °F 17.5 °F 23.0 °F 86% 29.84 in 1.5 mi NNW 9.2 mph - N/A Snow Light Snow
1:35 PM 26.6 °F 16.2 °F 21.2 °F 80% 29.86 in 2.0 mi North 11.5 mph - N/A Snow Light Snow
1:55 PM 26.6 °F 14.7 °F 21.2 °F 80% 29.87 in 4.0 mi NNW 15.0 mph - N/A Snow Light Snow
2:15 PM 24.8 °F 12.9 °F 19.4 °F 80% 29.89 in 10.0 mi North 13.8 mph - N/A Snow Light Snow
2:35 PM 24.8 °F 11.1 °F 17.6 °F 74% 29.90 in 7.0 mi NNW 18.4 mph - N/A   Overcast
2:55 PM 24.8 °F 12.9 °F 17.6 °F 74% 29.92 in 10.0 mi NNW 13.8 mph - N/A   Mostly Cloudy
3:15 PM 24.8 °F 11.1 °F 17.6 °F 74% 29.95 in 10.0 mi NNW 18.4 mph - N/A   Mostly Cloudy
3:35 PM 21.2 °F 7.3 °F 15.8 °F 80% 29.96 in 10.0 mi NNW 16.1 mph - N/A   Mostly Cloudy
3:55 PM 21.2 °F 7.8 °F 14.0 °F 74% 29.99 in 10.0 mi NNW 15.0 mph - N/A   Scattered Clouds
4:15 PM 19.4 °F 5.5 °F 10.4 °F 68% 30.00 in 10.0 mi NW 15.0 mph - N/A   Clear
4:35 PM 19.4 °F 6.6 °F 10.4 °F 68% 30.02 in 10.0 mi NW 12.7 mph - N/A   Clear
4:55 PM 17.6 °F 4.3 °F 6.8 °F 63% 30.04 in 10.0 mi NW 12.7 mph - N/A   Clear
5:15 PM 15.8 °F 2.1 °F 10.4 °F 79% 30.05 in 10.0 mi NW 12.7 mph - N/A   Clear
5:55 PM 12.2 °F -3.1 °F 6.8 °F 79% 30.08 in 10.0 mi NW 13.8 mph - N/A   Clear
6:15 PM 12.2 °F -2.5 °F 6.8 °F 79% 30.11 in 10.0 mi WNW 12.7 mph - N/A   Clear
6:35 PM 10.4 °F -7.2 °F 3.2 °F 73% 30.14 in 10.0 mi WNW 17.3 mph 21.9 mph N/A   Clear
6:55 PM 8.6 °F -9.5 °F 1.4 °F 73% 30.16 in 7.0 mi WNW 17.3 mph - N/A   Clear
7:15 PM 8.6 °F -9.5 °F 1.4 °F 73% 30.17 in 10.0 mi WNW 17.3 mph 20.7 mph N/A   Clear
7:35 PM 6.8 °F -11.3 °F -0.4 °F 72% 30.17 in 10.0 mi WNW 16.1 mph - N/A   Clear
7:55 PM 5.0 °F -13.0 °F -2.2 °F 72% 30.18 in 10.0 mi WNW 15.0 mph 21.9 mph N/A   Clear
8:15 PM 5.0 °F -13.0 °F -2.2 °F 72% 30.19 in 10.0 mi WNW 15.0 mph - N/A   Clear
8:55 PM 3.2 °F -15.3 °F -5.8 °F 66% 30.19 in 10.0 mi NW 15.0 mph - N/A   Clear
9:16 PM 3.2 °F -13.1 °F -5.8 °F 66% 30.21 in 10.0 mi WNW 11.5 mph - N/A   Clear
9:35 PM 1.4 °F -17.6 °F -7.6 °F 66% 30.21 in 10.0 mi WNW 15.0 mph - N/A   Clear
9:55 PM 1.4 °F -18.8 °F -7.6 °F 66% 30.23 in 10.0 mi NW 17.3 mph - N/A   Clear
10:16 PM 1.4 °F -16.1 °F -9.4 °F 61% 30.23 in 10.0 mi NW 12.7 mph - N/A   Clear
10:35 PM -0.4 °F -13.4 °F -9.4 °F 66% 30.24 in 10.0 mi WNW 6.9 mph - N/A   Clear
10:55 PM -0.4 °F -16.7 °F -9.4 °F 66% 30.24 in 10.0 mi NNW 10.4 mph - N/A   Clear
11:16 PM -0.4 °F -16.7 °F -9.4 °F 66% 30.25 in 10.0 mi NW 10.4 mph - N/A   Clear
11:35 PM -0.4 °F -17.6 °F -9.4 °F 66% 30.24 in 10.0 mi NNW 11.5 mph - N/A   Clear
11:55 PM -0.4 °F -16.7 °F -9.4 °F 66% 30.26 in 10.0 mi NNW 10.4 mph - N/A   Clear